Latest Weather Observations for Cooma Airport

IDN60901

Issued at 2:51 pm EDT Wednesday 22 February 2017 (issued every 10 minutes, with the page automatically refreshed every 10 minutes)

About weather observations | Map of Canberra area stations | Latest observations for Canberra area | Other Formats
Station Details ID: 070217 Name: COOMA AIRPORT AWS Lat: -36.29 Lon: 148.97 Height: 930.0 m
Data from the previous 72 hours. | See also: Recent months at Cooma Airport
Date/Time
EDT
Temp
°C
App
Temp
°C
Dew
Point
°C
Rel
Hum
%
Delta-T
°C
Wind Press
QNH
hPa
Press
MSL
hPa
Rain since
9am
mm
Dir  Spd
km/h
Gust
km/h
Spd
kts
Gust
kts
22/02:30pm 28.4 22.3 2.6 19 13.3 NW 24 39 13 21 1019.0 1015.0 0.0
22/02:00pm 27.8 21.7 2.8 20 12.9 NW 24 37 13 20 1019.3 1015.3 0.0
22/01:30pm 28.3 23.4 3.9 21 12.9 NW 19 37 10 20 1019.5 1015.6 0.0
22/01:00pm 27.5 22.4 3.9 22 12.4 NNW 20 35 11 19 1019.4 1015.5 0.0
22/12:30pm 27.0 21.8 5.3 25 11.6 N 22 39 12 21 1019.8 1015.9 0.0
22/12:00pm 26.0 20.0 3.3 23 11.7 NNW 24 39 13 21 1020.3 1016.3 0.0
22/11:30am 25.1 19.9 3.7 25 11.0 NNW 20 37 11 20 1020.5 1016.6 0.0
22/11:00am 24.2 19.0 7.4 34 9.2 N 24 35 13 19 1020.7 1016.8 0.0
22/10:30am 21.9 17.6 9.4 45 7.0 NNE 22 33 12 18 1021.1 1017.2 0.0
22/10:00am 19.3 15.0 10.8 58 4.8 NE 24 33 13 18 1021.6 1017.7 0.0
22/09:30am 17.6 13.3 10.9 65 3.8 NNE 24 32 13 17 1021.8 1017.9 0.0
22/09:00am 15.4 11.7 11.6 78 2.1 NE 22 28 12 15 1022.0 1018.1 0.0
22/08:30am 13.4 10.4 12.1 92 0.7 NE 19 24 10 13 1022.0 1018.1 0.0
22/08:00am 11.9 8.8 11.7 99 0.1 NE 19 22 10 12 1022.0 1018.1 0.0
22/07:30am 10.5 7.5 10.5 100 0.0 NE 17 19 9 10 1021.8 1017.9 0.0
22/07:25am 10.3 7.2 10.3 100 0.0 NE 17 19 9 10 1021.7 1017.8 0.0
22/07:00am 8.0 5.4 7.9 99 0.0 NNE 11 13 6 7 1021.6 1017.7 0.0
22/06:30am 7.6 4.6 7.5 99 0.0 NNE 13 15 7 8 1021.4 1017.5 0.0
22/06:00am 8.1 4.8 8.0 99 0.1 NNE 15 17 8 9 1021.0 1017.1 0.0
22/05:48am 8.1 4.8 8.0 99 0.1 NNE 15 17 8 9 1020.9 1017.0 0.0
22/05:30am 9.1 5.7 9.0 99 0.1 NE 17 17 9 9 1020.8 1016.9 0.0
22/05:00am 8.5 5.3 8.4 99 0.1 NNE 15 17 8 9 1020.8 1016.9 0.0
22/04:30am 9.2 5.8 9.1 99 0.1 NE 17 20 9 11 1020.8 1016.9 0.0
22/04:00am 9.6 5.9 9.5 99 0.1 NE 19 20 10 11 1020.9 1017.0 0.0
22/03:30am 9.5 5.8 9.4 99 0.1 NNE 19 20 10 11 1021.1 1017.2 0.0
22/03:00am 9.2 5.8 9.1 99 0.1 NNE 17 19 9 10 1021.6 1017.7 0.0
22/02:30am 8.6 5.8 8.5 99 0.1 NNE 13 15 7 8 1021.8 1017.9 0.0
22/02:00am 8.2 5.3 8.1 99 0.1 NNE 13 13 7 7 1022.0 1018.1 0.0
22/01:30am 9.2 7.3 9.1 99 0.1 NNE 9 11 5 6 1022.5 1018.6 0.0
22/01:00am 9.1 6.4 9.0 99 0.1 NNE 13 17 7 9 1022.6 1018.7 0.0
22/12:30am 9.5 6.9 9.4 99 0.1 NE 13 17 7 9 1022.8 1018.9 0.0
22/12:00am 9.7 7.2 9.6 99 0.1 NNE 13 15 7 8 1023.0 1019.1 0.0
 
Date/Time
EDT
Temp
°C
App
Temp
°C
Dew
Point
°C
Rel
Hum
%
Delta-T
°C
Wind Press
QNH
hPa
Press
MSL
hPa
Rain since
9am
mm
Dir  Spd
km/h
Gust
km/h
Spd
kts
Gust
kts
21/11:30pm 9.8 7.6 9.2 96 0.3 NNE 11 13 6 7 1023.2 1019.4 0.0
21/11:00pm 11.0 7.8 10.1 94 0.5 N 17 20 9 11 1023.2 1019.4 0.0
21/10:30pm 10.7 7.7 9.3 91 0.7 NNE 15 19 8 10 1023.1 1019.2 0.0
21/10:00pm 11.8 7.6 9.7 87 1.1 NE 22 28 12 15 1023.1 1019.2 0.0
21/09:30pm 12.3 7.3 9.7 84 1.4 NE 26 32 14 17 1022.7 1018.8 0.0
21/09:00pm 12.9 8.0 9.9 82 1.6 NE 26 32 14 17 1022.3 1018.5 0.0
21/08:30pm 13.6 8.6 9.6 77 2.2 NE 26 33 14 18 1021.9 1018.0 0.0
21/08:00pm 14.7 9.7 9.5 71 2.8 NE 26 35 14 19 1021.6 1017.7 0.0
21/07:30pm 16.1 9.7 9.3 64 3.7 ENE 33 41 18 22 1021.0 1017.1 0.0
21/07:00pm 18.4 12.4 8.7 53 5.3 ENE 30 37 16 20 1020.4 1016.5 0.0
21/06:30pm 21.1 14.6 6.6 39 7.7 ENE 30 39 16 21 1019.8 1015.9 0.0
21/06:00pm 23.4 18.2 -3.0 17 11.9 E 15 32 8 17 1019.5 1015.6 0.0
21/05:30pm 23.6 18.7 -3.7 16 12.2 ESE 13 20 7 11 1019.5 1015.6 0.0
21/05:00pm 23.6 18.3 -3.7 16 12.1 E 15 22 8 12 1019.5 1015.6 0.0
21/04:30pm 23.7 19.4 -4.4 15 12.4 SW 9 17 5 9 1019.6 1015.7 0.0
21/04:00pm 23.2 18.8 -2.4 18 11.6 NNE 11 19 6 10 1019.8 1015.9 0.0
21/03:30pm 23.1 18.2 -3.3 17 11.8 NW 13 22 7 12 1019.9 1016.0 0.0
21/03:00pm 22.3 18.3 -5.6 15 11.8 ENE 7 19 4 10 1020.2 1016.2 0.0
21/02:30pm 21.6 17.1 -3.0 19 10.9 E 11 20 6 11 1020.6 1016.7 0.0
21/02:00pm 21.2 16.4 -2.6 20 10.6 ENE 13 20 7 11 1020.8 1016.9 0.0
21/01:30pm 21.1 16.3 -2.7 20 10.6 ENE 13 24 7 13 1020.9 1017.0 0.0
21/01:00pm 20.2 15.2 -1.0 24 9.6 NNE 15 28 8 15 1021.1 1017.2 0.0
21/12:30pm 18.5 13.2 -0.3 28 8.6 ENE 17 28 9 15 1021.4 1017.5 0.0
21/12:00pm 18.5 13.2 -0.3 28 8.6 NE 17 28 9 15 1021.7 1017.8 0.0
21/11:30am 17.6 12.7 -0.2 30 8.1 NNE 15 26 8 14 1022.0 1018.1 0.0
21/11:00am 16.6 11.4 0.3 33 7.4 NNE 17 28 9 15 1022.2 1018.4 0.0
21/10:30am 15.1 10.0 0.5 37 6.6 NNE 17 28 9 15 1022.3 1018.5 0.0
21/10:00am 14.4 9.9 2.3 44 5.6 NE 15 22 8 12 1022.3 1018.5 0.0
21/09:30am 13.0 8.7 3.1 51 4.6 NE 15 20 8 11 1022.1 1018.2 0.0
21/09:00am 10.9 6.6 3.2 59 3.5 NNE 15 19 8 10 1022.0 1018.1 0.0
21/08:30am 8.5 4.1 2.7 67 2.6 NE 15 17 8 9 1021.9 1018.0 0.0
21/08:00am 7.0 3.1 3.4 78 1.6 NE 13 17 7 9 1021.4 1017.5 0.0
21/07:30am 3.2 0.2 2.3 94 0.4 NNE 7 9 4 5 1020.9 1017.0 0.0
21/07:00am 0.9 -2.9 -1.0 87 0.7 NNE 9 11 5 6 1020.5 1016.6 0.0
21/06:30am 1.9 -1.2 0.1 88 0.7 NNE 6 7 3 4 1020.2 1016.2 0.0
21/06:00am 1.6 -1.8 -0.5 86 0.8 NNE 7 9 4 5 1019.8 1015.9 0.0
21/05:30am 3.0 -0.5 1.2 88 0.7 NNE 9 11 5 6 1019.5 1015.6 0.0
21/05:00am 2.6 -0.6 0.5 86 0.8 NNE 7 11 4 6 1019.1 1015.1 0.0
21/04:30am 4.1 1.2 1.3 82 1.2 NNE 6 7 3 4 1019.1 1015.1 0.0
21/04:00am 3.3 0.0 0.2 80 1.2 N 7 9 4 5 1019.1 1015.1 0.0
21/03:30am 5.0 1.6 1.8 80 1.4 NNW 9 11 5 6 1019.1 1015.1 0.0
21/03:00am 4.8 1.6 0.8 75 1.6 NNW 7 11 4 6 1019.1 1015.1 0.0
21/02:30am 4.8 1.4 1.7 80 1.3 NE 9 11 5 6 1019.3 1015.3 0.0
21/02:00am 5.6 3.5 1.5 75 1.7 SSW 2 7 1 4 1019.3 1015.3 0.0
21/01:30am 4.9 0.9 0.3 72 1.9 NE 11 15 6 8 1019.5 1015.6 0.0
21/01:00am 9.0 5.3 2.1 62 3.0 NW 11 17 6 9 1019.5 1015.6 0.0
21/12:30am 8.9 4.8 2.5 64 2.9 NW 13 17 7 9 1019.4 1015.5 0.0
21/12:00am 7.8 4.8 2.3 68 2.4 NW 7 15 4 8 1019.3 1015.3 0.0
 
Date/Time
EDT
Temp
°C
App
Temp
°C
Dew
Point
°C
Rel
Hum
%
Delta-T
°C
Wind Press
QNH
hPa
Press
MSL
hPa
Rain since
9am
mm
Dir  Spd
km/h
Gust
km/h
Spd
kts
Gust
kts
20/11:30pm 8.6 4.9 2.2 64 2.8 WNW 11 15 6 8 1019.0 1015.0 0.0
20/11:00pm 7.3 3.8 1.2 65 2.6 NNW 9 15 5 8 1018.7 1014.8 0.0
20/10:30pm 8.1 3.9 1.5 63 2.9 NW 13 15 7 8 1018.4 1014.5 0.0
20/10:00pm 9.2 5.0 1.9 60 3.2 WNW 13 20 7 11 1018.0 1014.0 0.0
20/09:30pm 8.6 5.7 1.3 60 3.2 NW 6 9 3 5 1017.8 1013.8 0.0
20/09:00pm 9.1 5.2 1.3 58 3.4 WNW 11 15 6 8 1017.4 1013.5 0.0
20/08:30pm 10.3 6.4 1.4 54 3.9 WNW 11 15 6 8 1017.0 1013.0 0.0
20/08:00pm 11.4 6.0 1.1 49 4.6 W 19 28 10 15 1016.3 1012.3 0.0
20/07:30pm 12.0 6.0 1.3 48 4.8 W 22 33 12 18 1015.8 1011.8 0.0
20/07:00pm 13.2 6.0 0.9 43 5.5 W 28 35 15 19 1015.2 1011.2 0.0
20/06:30pm 13.5 6.7 0.5 41 5.8 W 26 41 14 22 1014.8 1010.8 0.0
20/06:00pm 13.9 7.2 1.2 42 5.8 W 26 35 14 19 1014.5 1010.4 0.0
20/05:43pm 14.3 7.2 1.2 41 6.0 W 28 46 15 25 1014.4 1010.3 0.0
20/05:30pm 14.3 6.8 0.9 40 6.1 W 30 44 16 24 1014.4 1010.3 0.0
20/05:00pm 15.2 7.4 1.4 39 6.4 W 32 39 17 21 1013.9 1009.9 0.0
20/04:30pm 13.1 4.5 0.5 42 5.6 W 35 52 19 28 1013.6 1009.6 0.0
20/04:27pm 14.1 6.0 1.1 41 5.9 W 33 52 18 28 1013.6 1009.6 0.0
20/04:00pm 13.8 5.8 0.5 40 5.9 WSW 32 43 17 23 1013.3 1009.2 0.0
20/03:30pm 13.9 5.8 -0.2 38 6.2 WSW 32 46 17 25 1012.7 1008.7 0.0
20/03:00pm 16.2 7.7 0.7 35 7.1 WSW 35 46 19 25 1012.3 1008.2 0.0
20/02:30pm 16.1 8.0 0.7 35 7.0 WSW 33 46 18 25 1012.3 1008.2 0.0
20/02:00pm 16.3 8.2 0.8 35 7.1 WSW 33 44 18 24 1012.0 1007.9 0.0
20/01:30pm 15.7 7.6 1.1 37 6.7 WSW 33 48 18 26 1011.8 1007.8 0.0
20/01:18pm 15.0 7.5 1.5 40 6.2 WSW 30 48 16 26 1011.7 1007.7 0.0
20/01:00pm 15.1 7.1 0.5 37 6.6 W 32 43 17 23 1011.5 1007.4 0.0
20/12:30pm 14.2 5.9 -0.3 37 6.4 W 33 52 18 28 1011.5 1007.4 0.0
20/12:14pm 14.8 7.5 0.3 37 6.5 W 28 46 15 25 1011.4 1007.3 0.0
20/12:00pm 13.7 5.7 0.4 40 5.9 W 32 44 17 24 1011.4 1007.3 0.0
20/11:57am 14.1 6.1 0.7 40 6.0 W 32 50 17 27 1011.3 1007.2 0.0
20/11:30am 14.1 6.0 0.0 38 6.2 WSW 32 48 17 26 1011.2 1007.1 0.0
20/11:00am 13.5 5.3 0.2 40 5.9 W 33 52 18 28 1011.2 1007.1 0.0
20/10:30am 13.0 5.0 0.4 42 5.6 WSW 32 48 17 26 1010.9 1006.8 0.0
20/10:24am 12.4 5.1 0.2 43 5.3 W 28 48 15 26 1010.9 1006.8 0.0
20/10:00am 11.6 5.5 0.4 46 4.9 W 22 32 12 17 1010.7 1006.7 0.0
20/09:30am 10.6 4.0 -0.5 46 4.7 W 24 32 13 17 1010.6 1006.5 0.0
20/09:00am 9.6 4.3 -0.3 50 4.2 WSW 17 22 9 12 1010.7 1006.7 0.4
20/08:30am 8.7 5.1 0.4 56 3.5 NW 9 17 5 9 1010.6 1006.5 0.4
20/08:00am 7.3 3.1 -0.6 57 3.2 WNW 11 15 6 8 1010.2 1006.1 0.4
20/07:30am 6.3 1.4 -0.4 62 2.7 WNW 15 19 8 10 1009.8 1005.7 0.4
20/07:00am 5.5 -0.1 -0.3 66 2.4 WNW 19 24 10 13 1009.7 1005.5 0.4
20/06:30am 4.3 -0.2 -0.5 71 1.9 WNW 13 17 7 9 1009.3 1005.2 0.4
20/06:00am 4.7 -0.5 -0.1 71 1.9 WNW 17 22 9 12 1009.1 1005.0 0.4
20/05:30am 4.6 0.6 0.7 76 1.6 NW 11 17 6 9 1008.8 1004.7 0.4
20/05:00am 2.8 -0.5 0.4 84 1.0 SW 7 9 4 5 1008.9 1004.8 0.4
20/04:30am 4.3 0.4 1.2 80 1.3 WNW 11 17 6 9 1008.6 1004.4 0.4
20/04:00am 4.5 0.6 1.2 79 1.4 W 11 13 6 7 1008.7 1004.5 0.4
20/03:30am 5.7 1.1 1.6 75 1.7 W 15 22 8 12 1008.8 1004.7 0.4
20/03:00am 5.8 1.3 2.1 77 1.6 WNW 15 20 8 11 1008.4 1004.3 0.4
20/02:30am 6.7 3.7 4.2 84 1.1 SW 9 13 5 7 1008.4 1004.3 0.4
20/02:00am 6.7 4.4 4.7 87 0.9 WNW 6 9 3 5 1008.8 1004.7 0.4
20/01:30am 7.1 3.2 5.3 88 0.8 SW 15 20 8 11 1008.4 1004.3 0.4
20/01:00am 8.5 2.9 3.6 71 2.2 W 22 33 12 18 1009.2 1005.1 0.0
20/12:30am 10.1 4.9 2.2 58 3.5 W 19 28 10 15 1008.8 1004.7 0.0
20/12:00am 9.5 5.6 0.9 55 3.7 WNW 11 15 6 8 1008.4 1004.3 0.0
 
Date/Time
EDT
Temp
°C
App
Temp
°C
Dew
Point
°C
Rel
Hum
%
Delta-T
°C
Wind Press
QNH
hPa
Press
MSL
hPa
Rain since
9am
mm
Dir  Spd
km/h
Gust
km/h
Spd
kts
Gust
kts
19/11:30pm 10.0 6.0 0.6 52 4.1 NNW 11 17 6 9 1008.1 1004.0 0.0
19/11:00pm 10.2 6.2 0.5 51 4.2 NW 11 15 6 8 1008.3 1004.2 0.0
19/10:30pm 9.5 5.4 0.1 52 4.0 WNW 11 15 6 8 1008.8 1004.7 0.0
19/10:00pm 10.4 6.4 0.4 50 4.3 NW 11 17 6 9 1009.4 1005.3 0.0
19/09:30pm 9.9 5.5 0.3 51 4.1 WNW 13 20 7 11 1009.7 1005.5 0.0
19/09:00pm 10.8 6.4 0.2 48 4.6 WNW 13 17 7 9 1009.5 1005.4 0.0
19/08:30pm 12.1 6.9 -0.1 43 5.3 WNW 17 24 9 13 1009.5 1005.4 0.0
19/08:00pm 12.9 7.1 -0.4 40 5.8 W 20 28 11 15 1009.2 1005.1 0.0
19/07:30pm 13.9 8.2 -0.9 36 6.4 WNW 19 28 10 15 1008.6 1004.4 0.0
19/07:00pm 15.7 10.0 -0.9 32 7.3 WNW 19 28 10 15 1008.0 1003.9 0.0
19/06:30pm 15.8 9.8 -1.7 30 7.6 WNW 20 35 11 19 1007.7 1003.5 0.0
19/06:00pm 16.3 9.8 -2.7 27 8.1 WNW 22 35 12 19 1007.6 1003.4 0.0
19/05:30pm 17.5 10.6 -2.7 25 8.7 NW 24 35 13 19 1007.2 1003.1 0.0
19/05:00pm 18.2 11.0 -2.1 25 8.9 WNW 26 41 14 22 1007.1 1003.0 0.0
19/04:30pm 18.5 11.6 -2.4 24 9.1 WNW 24 37 13 20 1007.1 1003.0 0.0
19/04:00pm 18.3 11.5 -2.0 25 9.0 NW 24 41 13 22 1007.5 1003.3 0.0
19/03:30pm 18.5 12.5 -1.3 26 8.9 NW 20 35 11 19 1007.7 1003.5 0.0
19/03:00pm 17.7 11.0 -1.0 28 8.4 NW 24 39 13 21 1007.9 1003.8 0.0

Latest Capital City Observations: Canberra | Sydney | Melbourne | Brisbane | Adelaide | Perth | Hobart | Darwin

Other Formats:

Comma delimited format used in spreadsheet applications
http://www.bom.gov.au/fwo/IDN60903/IDN60903.94921.axf

JavaScript Object Notation format (JSON) in row-major order
http://www.bom.gov.au/fwo/IDN60903/IDN60903.94921.json